Time;durP1;ratioP1;P1;durP2;ratioP2;P2;SDS_P1;SDS_P2;PMS_P1;PMS_P2;Temp;Humidity;BMP_temperature;BMP_pressure;BME280_temperature;BME280_humidity;BME280_pressure;Samples;Min_cycle;Max_cycle;Signal;HPM_P1;HPM_P2
2019/06/04 00:01:40;;;;;;;6.9;3.8;;;;;;;18.07;73.43652;959.7891;;;;
2019/06/04 00:04:16;;;;;;;6.4;3.8;;;;;;;18.06;73.2959;959.7559;;;;
2019/06/04 00:06:54;;;;;;;6.4;4;;;;;;;18.07;72.42969;959.7874;;;;
2019/06/04 00:09:32;;;;;;;7.9;4;;;;;;;17.97;74.4375;959.7949;;;;
2019/06/04 00:11:57;;;;;;;7;3.6;;;;;;;18.01;72.22168;959.7747;;;;
2019/06/04 00:14:28;;;;;;;7.4;4;;;;;;;18.12;72.64941;959.7024;;;;
2019/06/04 00:16:55;;;;;;;6.2;3.5;;;;;;;18.07;73.63574;959.7106;;;;
2019/06/04 00:19:23;;;;;;;7.1;3.9;;;;;;;18;73.49512;959.6848;;;;
2019/06/04 00:21:50;;;;;;;7.1;3.7;;;;;;;18.04;71.96875;959.645;;;;
2019/06/04 00:24:17;;;;;;;5;3.4;;;;;;;18.02;73.08984;959.608;;;;
2019/06/04 00:26:52;;;;;;;5.5;3.5;;;;;;;18;73.4834;959.5742;;;;
2019/06/04 00:29:26;;;;;;;7.6;3.8;;;;;;;18.02;72.94922;959.4702;;;;
2019/06/04 00:32:01;;;;;;;7.4;4;;;;;;;17.96;73.04395;959.4832;;;;
2019/06/04 00:34:27;;;;;;;7.5;3.5;;;;;;;17.95;73.03125;959.4983;;;;
2019/06/04 00:36:56;;;;;;;6.6;3.7;;;;;;;17.93;73.37891;959.5025;;;;
2019/06/04 00:39:31;;;;;;;6.4;3.5;;;;;;;17.93;73.83594;959.4802;;;;
2019/06/04 00:41:56;;;;;;;5.8;3.5;;;;;;;17.82;74.50781;959.4672;;;;
2019/06/04 00:44:41;;;;;;;8.4;3.7;;;;;;;17.71;74.42969;959.4498;;;;
2019/06/04 00:47:12;;;;;;;6.2;3.8;;;;;;;17.77;74.00879;959.4512;;;;
2019/06/04 00:49:38;;;;;;;5.3;3.9;;;;;;;17.73;74.74902;959.4568;;;;
2019/06/04 00:52:08;;;;;;;6.6;3.7;;;;;;;17.85;72.74512;959.4183;;;;
2019/06/04 00:54:42;;;;;;;7.8;3.7;;;;;;;17.87;73.43848;959.3901;;;;
2019/06/04 00:57:14;;;;;;;5.3;3.8;;;;;;;17.87;73.7666;959.3439;;;;
2019/06/04 00:59:39;;;;;;;5.2;3.7;;;;;;;17.75;74.56641;959.334;;;;
2019/06/04 01:02:12;;;;;;;6;3.5;;;;;;;17.72;74.34961;959.3418;;;;
2019/06/04 01:04:43;;;;;;;6.4;4;;;;;;;17.68;74.44824;959.3702;;;;
2019/06/04 01:07:10;;;;;;;5.6;3.7;;;;;;;17.59;75.24023;959.3125;;;;
2019/06/04 01:09:44;;;;;;;5.2;3.7;;;;;;;17.47;75.80371;959.3111;;;;
2019/06/04 01:12:13;;;;;;;6;3.7;;;;;;;17.49;75.62109;959.2473;;;;
2019/06/04 01:14:45;;;;;;;6.7;4.1;;;;;;;17.43;75.78711;959.2469;;;;
2019/06/04 01:17:15;;;;;;;6.4;3.8;;;;;;;17.37;76.05566;959.2103;;;;
2019/06/04 01:19:50;;;;;;;6;4;;;;;;;17.36;76.12402;959.2073;;;;
2019/06/04 01:22:31;;;;;;;5.3;4;;;;;;;17.33;75.83887;959.1481;;;;
2019/06/04 01:24:58;;;;;;;5.8;3.9;;;;;;;17.26;76.71484;959.1241;;;;
2019/06/04 01:27:27;;;;;;;6.2;3.6;;;;;;;17.34;76.22656;959.1116;;;;
2019/06/04 01:29:53;;;;;;;6.3;3.8;;;;;;;17.26;76.75;959.0986;;;;
2019/06/04 01:32:25;;;;;;;5.8;4;;;;;;;17.19;76.93457;959.0734;;;;
2019/06/04 01:34:55;;;;;;;7.4;4;;;;;;;17.14;77.27734;959.0811;;;;
2019/06/04 01:37:26;;;;;;;7;4;;;;;;;17.01;78.14258;959.0722;;;;
2019/06/04 01:39:55;;;;;;;6.3;3.9;;;;;;;16.99;78.1748;959.1035;;;;
2019/06/04 01:42:29;;;;;;;9.6;4.3;;;;;;;16.95;78.09668;959.1229;;;;
2019/06/04 01:45:02;;;;;;;4.5;4;;;;;;;16.93;78.28027;959.0803;;;;
2019/06/04 01:47:29;;;;;;;6.7;3.9;;;;;;;17.02;78.08594;959.1184;;;;
2019/06/04 01:49:54;;;;;;;7.5;4;;;;;;;17.03;77.69043;959.0722;;;;
2019/06/04 01:52:22;;;;;;;7.2;4.4;;;;;;;17.03;78.30957;959.0911;;;;
2019/06/04 01:54:56;;;;;;;5.9;4.3;;;;;;;17.09;77.52637;959.0594;;;;
2019/06/04 01:57:33;;;;;;;6.1;4.3;;;;;;;17.03;77.71387;959.0598;;;;
2019/06/04 02:00:00;;;;;;;6.3;4.5;;;;;;;16.92;78.05664;959.0349;;;;
2019/06/04 02:02:31;;;;;;;8.9;4.5;;;;;;;17.02;77.45508;959.0309;;;;
2019/06/04 02:04:58;;;;;;;10.1;4.8;;;;;;;16.98;77.5293;959.0256;;;;
2019/06/04 02:07:36;;;;;;;6.1;4.7;;;;;;;16.94;77.95605;958.9986;;;;
2019/06/04 02:10:14;;;;;;;5.6;4.2;;;;;;;16.9;78.28711;958.965;;;;
2019/06/04 02:12:52;;;;;;;5.9;4.2;;;;;;;16.88;78.22363;958.9883;;;;
2019/06/04 02:15:23;;;;;;;8.8;4.8;;;;;;;16.96;78.10938;958.8879;;;;
2019/06/04 02:17:48;;;;;;;8.4;4.6;;;;;;;16.96;78.34473;958.8931;;;;
2019/06/04 02:20:13;;;;;;;6.8;4.5;;;;;;;16.93;78.08008;958.9006;;;;
2019/06/04 02:22:51;;;;;;;8.4;4.9;;;;;;;16.81;78.64453;958.9244;;;;
2019/06/04 02:25:18;;;;;;;7.1;4.2;;;;;;;16.83;78.32227;958.9309;;;;
2019/06/04 02:27:47;;;;;;;9;4.9;;;;;;;16.71;80.12109;958.8918;;;;
2019/06/04 02:30:18;;;;;;;7;4.2;;;;;;;16.81;78.64453;958.8308;;;;
2019/06/04 02:32:53;;;;;;;6.5;4.3;;;;;;;16.85;78.02051;958.8264;;;;
2019/06/04 02:35:31;;;;;;;5.4;4.1;;;;;;;16.87;78.56055;958.8104;;;;
2019/06/04 02:38:04;;;;;;;4.9;4.1;;;;;;;16.83;78.28711;958.7811;;;;
2019/06/04 02:40:29;;;;;;;7.9;4.4;;;;;;;16.84;78.31055;958.7358;;;;
2019/06/04 02:42:57;;;;;;;6.1;4.5;;;;;;;16.84;78.41602;958.7292;;;;
2019/06/04 02:45:29;;;;;;;5.2;4.3;;;;;;;16.79;78.55859;958.7363;;;;
2019/06/04 02:48:03;;;;;;;6.5;4.3;;;;;;;16.73;78.82715;958.7307;;;;
2019/06/04 02:50:33;;;;;;;6.1;4.5;;;;;;;16.65;78.88574;958.6996;;;;
2019/06/04 02:53:05;;;;;;;5.8;4.5;;;;;;;16.65;78.7207;958.7483;;;;
2019/06/04 02:55:30;;;;;;;6.5;4.4;;;;;;;16.51;79.53516;958.7111;;;;
2019/06/04 02:57:55;;;;;;;7.4;4.4;;;;;;;16.54;79.50684;958.731;;;;
2019/06/04 03:00:28;;;;;;;7.1;4.5;;;;;;;16.56;79.32129;958.7117;;;;
2019/06/04 03:03:02;;;;;;;6.8;4.5;;;;;;;16.54;79.35352;958.701;;;;
2019/06/04 03:05:27;;;;;;;7;4.2;;;;;;;16.55;79.20508;958.725;;;;
2019/06/04 03:08:02;;;;;;;6.1;4.2;;;;;;;16.61;78.67773;958.7222;;;;
2019/06/04 03:10:30;;;;;;;5.8;4.4;;;;;;;16.41;79.41211;958.6838;;;;
2019/06/04 03:13:02;;;;;;;5.9;4.4;;;;;;;16.44;79.66211;958.6383;;;;
2019/06/04 03:15:27;;;;;;;6.1;4.4;;;;;;;16.41;79.97266;958.6205;;;;
2019/06/04 03:17:52;;;;;;;7.4;4.4;;;;;;;16.35;80.25195;958.5656;;;;
2019/06/04 03:20:30;;;;;;;6.9;4.5;;;;;;;16.41;79.58887;958.5974;;;;
2019/06/04 03:23:06;;;;;;;7.8;4.4;;;;;;;16.42;79.33398;958.6238;;;;
2019/06/04 03:25:31;;;;;;;5.2;4.5;;;;;;;16.54;78.38477;958.6624;;;;
2019/06/04 03:28:01;;;;;;;5.2;4.2;;;;;;;16.51;78.76465;958.6152;;;;
2019/06/04 03:30:28;;;;;;;6.6;4.4;;;;;;;16.5;78.97363;958.6036;;;;
2019/06/04 03:33:05;;;;;;;8.2;4.6;;;;;;;16.61;77.89551;958.6111;;;;
2019/06/04 03:35:31;;;;;;;5.9;4.3;;;;;;;16.54;78.15137;958.6163;;;;
2019/06/04 03:37:59;;;;;;;5.6;4;;;;;;;16.61;77.56934;958.5906;;;;
2019/06/04 03:40:33;;;;;;;9.2;4.6;;;;;;;16.55;78.30664;958.642;;;;
2019/06/04 03:43:02;;;;;;;6.5;4.3;;;;;;;16.48;78.24707;958.6194;;;;
2019/06/04 03:45:34;;;;;;;8.6;4.6;;;;;;;16.54;78.03613;958.6552;;;;
2019/06/04 03:48:08;;;;;;;5.9;4.3;;;;;;;16.49;78.72852;958.6241;;;;
2019/06/04 03:50:33;;;;;;;6.6;4.3;;;;;;;16.49;78.52832;958.6522;;;;
2019/06/04 03:53:05;;;;;;;6.3;4.4;;;;;;;16.48;78.46875;958.6414;;;;
2019/06/04 03:55:39;;;;;;;5.9;4.3;;;;;;;16.43;78.68066;958.6672;;;;
2019/06/04 03:58:21;;;;;;;7.3;4.4;;;;;;;16.39;79.21094;958.6689;;;;
2019/06/04 04:02:41;;;;;;;6;4.7;;;;;;;16.43;78.9375;958.6525;;;;
2019/06/04 04:05:18;;;;;;;5.4;4.3;;;;;;;16.48;78.92188;958.62;;;;
2019/06/04 04:07:50;;;;;;;5.4;3.8;;;;;;;16.53;78.55859;958.623;;;;
2019/06/04 04:10:25;;;;;;;6.7;4.1;;;;;;;16.54;78.10645;958.5977;;;;
2019/06/04 04:13:03;;;;;;;5.9;4.3;;;;;;;16.56;77.53613;958.6385;;;;
2019/06/04 04:15:38;;;;;;;8.6;4.4;;;;;;;16.54;78.15137;958.6451;;;;
2019/06/04 04:18:16;;;;;;;7;5.1;;;;;;;16.53;77.91699;958.6691;;;;
2019/06/04 04:20:54;;;;;;;5.2;4.1;;;;;;;16.66;77.08887;958.6386;;;;
2019/06/04 04:23:19;;;;;;;5.4;4.2;;;;;;;16.63;77.16406;958.6314;;;;
2019/06/04 04:25:44;;;;;;;5.8;4.5;;;;;;;16.51;78.18164;958.6617;;;;
2019/06/04 04:28:12;;;;;;;5.4;4.2;;;;;;;16.59;77.96094;958.7108;;;;
2019/06/04 04:30:38;;;;;;;7;4.4;;;;;;;16.55;78.12012;958.6913;;;;
2019/06/04 04:33:04;;;;;;;6.9;3.9;;;;;;;16.6;77.82617;958.6969;;;;
2019/06/04 04:35:40;;;;;;;5.8;4.1;;;;;;;16.61;77.65234;958.7247;;;;
2019/06/04 04:38:11;;;;;;;5.7;4;;;;;;;16.71;76.67773;958.6919;;;;
2019/06/04 04:40:43;;;;;;;5.9;3.7;;;;;;;16.77;76.60547;958.6926;;;;
2019/06/04 04:43:11;;;;;;;6.8;4.1;;;;;;;16.67;77.31152;958.7004;;;;
2019/06/04 04:45:36;;;;;;;5.1;3.7;;;;;;;16.7;77.38672;958.702;;;;
2019/06/04 04:48:10;;;;;;;6.2;3.8;;;;;;;16.66;77.24023;958.6592;;;;
2019/06/04 04:50:53;;;;;;;4.8;4.2;;;;;;;16.63;77.93555;958.7079;;;;
2019/06/04 04:53:30;;;;;;;5.5;4.1;;;;;;;16.63;77.16504;958.7338;;;;
2019/06/04 04:56:04;;;;;;;6.3;3.6;;;;;;;16.73;77.47461;958.6885;;;;
2019/06/04 04:58:30;;;;;;;5.3;3.7;;;;;;;16.78;77.15527;958.6983;;;;
2019/06/04 05:01:04;;;;;;;5.3;4.3;;;;;;;16.76;77.50293;958.608;;;;
2019/06/04 05:03:43;;;;;;;5.5;3.6;;;;;;;16.86;76.70313;958.6328;;;;
2019/06/04 05:06:12;;;;;;;4.8;3.5;;;;;;;16.88;77.10254;958.6409;;;;
2019/06/04 05:08:49;;;;;;;7.1;3.7;;;;;;;16.97;75.77539;958.6503;;;;
2019/06/04 05:11:14;;;;;;;4.8;3.7;;;;;;;17.02;75.95996;958.7007;;;;
2019/06/04 05:13:47;;;;;;;4.4;3.9;;;;;;;17.1;76.11426;958.7726;;;;
2019/06/04 05:16:15;;;;;;;5.3;3.7;;;;;;;17.15;76.50781;958.8186;;;;
2019/06/04 05:18:40;;;;;;;4.3;3.8;;;;;;;17.18;75.68457;958.7687;;;;
2019/06/04 05:21:25;;;;;;;4.3;3.5;;;;;;;17.23;75.99707;958.8113;;;;
2019/06/04 05:23:52;;;;;;;4.2;3.6;;;;;;;17.21;76.62402;958.8303;;;;
2019/06/04 05:26:18;;;;;;;5.4;3.7;;;;;;;17.3;76.44238;958.7924;;;;
2019/06/04 05:28:54;;;;;;;5.1;3.8;;;;;;;17.44;75.08594;958.8269;;;;
2019/06/04 05:31:33;;;;;;;4.5;3.6;;;;;;;17.48;74.53223;958.8231;;;;
2019/06/04 05:34:14;;;;;;;6.1;3.8;;;;;;;17.47;75.21875;958.8635;;;;
2019/06/04 05:36:39;;;;;;;3.9;3.4;;;;;;;17.49;74.85938;958.9333;;;;
2019/06/04 05:39:04;;;;;;;5.4;3.4;;;;;;;17.53;74.50488;958.9991;;;;
2019/06/04 05:41:38;;;;;;;5.9;3.3;;;;;;;17.65;74.17383;959.0581;;;;
2019/06/04 05:44:18;;;;;;;4.8;2.8;;;;;;;17.66;73.56836;959.0513;;;;
2019/06/04 05:46:59;;;;;;;4.8;2.7;;;;;;;17.65;74.48926;958.9886;;;;
2019/06/04 05:49:27;;;;;;;5.2;2.9;;;;;;;17.87;72.58301;958.9556;;;;
2019/06/04 05:51:55;;;;;;;5;2.6;;;;;;;17.95;72.71387;958.8928;;;;
2019/06/04 05:54:36;;;;;;;4.5;2.9;;;;;;;17.92;72.5;958.9048;;;;
2019/06/04 05:57:07;;;;;;;3.4;2.5;;;;;;;18.1;71.58105;958.8887;;;;
2019/06/04 05:59:45;;;;;;;5;2.7;;;;;;;18.16;71.23926;958.8468;;;;
2019/06/04 06:02:16;;;;;;;5.1;2.5;;;;;;;18.26;70.99609;958.8703;;;;
2019/06/04 06:04:49;;;;;;;4.2;2.9;;;;;;;18.38;70.38379;958.8038;;;;
2019/06/04 06:07:28;;;;;;;4.1;2.5;;;;;;;18.47;70.94922;958.8653;;;;
2019/06/04 06:10:06;;;;;;;5.2;2.6;;;;;;;18.6;69.91406;958.8181;;;;
2019/06/04 06:12:37;;;;;;;4.9;3.1;;;;;;;18.68;69.11914;958.8812;;;;
2019/06/04 06:15:18;;;;;;;4.3;2.6;;;;;;;18.78;69.71973;958.9133;;;;
2019/06/04 06:17:48;;;;;;;4.7;2.6;;;;;;;18.82;69.63281;958.9113;;;;
2019/06/04 06:20:21;;;;;;;6.5;2.3;;;;;;;18.74;68.6123;958.9097;;;;
2019/06/04 06:22:52;;;;;;;4.5;2.4;;;;;;;18.83;67.64063;958.9059;;;;
2019/06/04 06:25:27;;;;;;;3.9;2.2;;;;;;;19.06;67.21875;958.9092;;;;
2019/06/04 06:27:55;;;;;;;3;2.2;;;;;;;19.08;67.78516;958.884;;;;
2019/06/04 06:30:27;;;;;;;3.3;2.3;;;;;;;19.12;67.27539;958.8597;;;;
2019/06/04 06:33:00;;;;;;;3.5;2.1;;;;;;;19.15;66.30469;958.86;;;;
2019/06/04 06:35:28;;;;;;;2.7;2.1;;;;;;;19.21;66.53809;958.845;;;;
2019/06/04 06:38:00;;;;;;;3.1;1.9;;;;;;;19.38;65.49316;958.8372;;;;
2019/06/04 06:40:33;;;;;;;3.9;1.9;;;;;;;19.44;65.96191;958.8694;;;;
2019/06/04 06:43:05;;;;;;;5.7;2.1;;;;;;;19.53;65.79785;958.8489;;;;
2019/06/04 06:45:33;;;;;;;4.3;2;;;;;;;19.66;63.92578;958.8311;;;;
2019/06/04 06:48:07;;;;;;;5;2.1;;;;;;;19.76;63.58789;958.8002;;;;
2019/06/04 06:50:36;;;;;;;3.8;2;;;;;;;19.9;62.7373;958.8301;;;;
2019/06/04 06:53:02;;;;;;;4.5;2.2;;;;;;;19.9;63.98438;958.8516;;;;
2019/06/04 06:55:32;;;;;;;4;2.2;;;;;;;19.83;64.21094;958.819;;;;
2019/06/04 06:58:01;;;;;;;4.7;2.1;;;;;;;20.02;64.55371;958.8777;;;;
2019/06/04 07:00:31;;;;;;;4.9;2.6;;;;;;;20.16;63.19824;958.8201;;;;
2019/06/04 07:03:01;;;;;;;4.2;2.4;;;;;;;20.14;62.87793;958.8262;;;;
2019/06/04 07:05:28;;;;;;;6.8;3.3;;;;;;;20.22;62.37109;958.8031;;;;
2019/06/04 07:07:59;;;;;;;3.7;2.2;;;;;;;20.3;63.18262;958.8264;;;;
2019/06/04 07:10:29;;;;;;;4.5;2.2;;;;;;;20.39;62.7832;958.7717;;;;
2019/06/04 07:13:00;;;;;;;2.8;2;;;;;;;20.67;60.68066;958.7834;;;;
2019/06/04 07:15:27;;;;;;;4;1.9;;;;;;;20.59;62.08203;958.7254;;;;
2019/06/04 07:18:05;;;;;;;4.4;2.2;;;;;;;20.6;62.37793;958.7714;;;;
2019/06/04 07:20:31;;;;;;;3.1;2.2;;;;;;;21.07;59.93262;958.7687;;;;
2019/06/04 07:23:06;;;;;;;3.8;1.8;;;;;;;20.84;62.18848;958.8035;;;;
2019/06/04 07:25:34;;;;;;;2.6;1.7;;;;;;;20.95;59.82227;958.8021;;;;
2019/06/04 07:28:09;;;;;;;4;2;;;;;;;20.85;62.4248;958.7354;;;;
2019/06/04 07:30:34;;;;;;;2.4;1.9;;;;;;;20.9;61.54883;958.7342;;;;
2019/06/04 07:33:03;;;;;;;3.3;1.6;;;;;;;20.91;60.73633;958.7151;;;;
2019/06/04 07:35:32;;;;;;;2.3;1.8;;;;;;;21.29;58.60645;958.7167;;;;
2019/06/04 07:38:05;;;;;;;2.7;1.7;;;;;;;21.35;60.07617;958.7444;;;;
2019/06/04 07:40:30;;;;;;;2.3;1.6;;;;;;;21.33;59.76758;958.6877;;;;
2019/06/04 07:43:01;;;;;;;4.2;1.9;;;;;;;21.3;60.28125;958.6198;;;;
2019/06/04 07:45:28;;;;;;;4.8;2;;;;;;;21.41;60.8291;958.6211;;;;
2019/06/04 07:47:54;;;;;;;3;2;;;;;;;21.3;60.69434;958.6131;;;;
2019/06/04 07:50:23;;;;;;;2.1;1.9;;;;;;;21.29;60.43457;958.5683;;;;
2019/06/04 07:52:55;;;;;;;3.8;1.7;;;;;;;21.58;59.11719;958.5406;;;;
2019/06/04 07:55:23;;;;;;;2.7;1.9;;;;;;;21.59;59.81348;958.5845;;;;
2019/06/04 07:58:01;;;;;;;3.6;1.7;;;;;;;21.6;60.68848;958.5636;;;;
2019/06/04 08:00:28;;;;;;;3.7;1.9;;;;;;;21.63;60.25586;958.5402;;;;
2019/06/04 08:02:59;;;;;;;4.1;1.8;;;;;;;21.53;60.57422;958.5294;;;;
2019/06/04 08:05:25;;;;;;;2.6;1.7;;;;;;;21.66;59.10352;958.5845;;;;
2019/06/04 08:07:52;;;;;;;4.5;2.1;;;;;;;21.79;58.30566;958.5064;;;;
2019/06/04 08:10:26;;;;;;;2.9;1.7;;;;;;;22.24;55.83691;958.4908;;;;
2019/06/04 08:12:52;;;;;;;4;1.8;;;;;;;22;55.66406;958.4832;;;;
2019/06/04 08:15:23;;;;;;;2.6;1.7;;;;;;;21.98;54.86914;958.4578;;;;
2019/06/04 08:17:53;;;;;;;2.8;1.7;;;;;;;22.06;57.26758;958.4922;;;;
2019/06/04 08:20:23;;;;;;;3.6;1.6;;;;;;;22.14;54.72363;958.4138;;;;
2019/06/04 08:22:52;;;;;;;2.6;1.6;;;;;;;22.23;55.49219;958.3706;;;;
2019/06/04 08:25:19;;;;;;;3.3;1.7;;;;;;;22.2;54.73242;958.3616;;;;
2019/06/04 08:27:51;;;;;;;2.4;1.7;;;;;;;22.28;55.64063;958.3334;;;;
2019/06/04 08:30:16;;;;;;;3.1;1.7;;;;;;;22.28;56.24316;958.3203;;;;
2019/06/04 08:32:46;;;;;;;2.6;1.4;;;;;;;22.44;55.54199;958.241;;;;
2019/06/04 08:35:19;;;;;;;2.4;1.5;;;;;;;22.57;54.69531;958.2288;;;;
2019/06/04 08:37:47;;;;;;;3.7;1.7;;;;;;;22.67;53.47656;958.252;;;;
2019/06/04 08:40:24;;;;;;;2.8;1.5;;;;;;;22.54;52.78809;958.2062;;;;
2019/06/04 08:43:05;;;;;;;3.2;1.7;;;;;;;22.71;54.56934;958.2311;;;;
2019/06/04 08:45:31;;;;;;;1.6;1.4;;;;;;;22.83;54.13477;958.2084;;;;
2019/06/04 08:48:05;;;;;;;3.1;1.6;;;;;;;22.86;53.21582;958.2198;;;;
2019/06/04 08:50:32;;;;;;;3.7;1.5;;;;;;;22.85;53.67676;958.1386;;;;
2019/06/04 08:53:06;;;;;;;3.9;1.6;;;;;;;23.08;52.70801;958.1764;;;;
2019/06/04 08:55:33;;;;;;;2.6;1.5;;;;;;;23.07;55.13477;958.1646;;;;
2019/06/04 08:58:01;;;;;;;2.3;1.3;;;;;;;23.22;52.80957;958.1393;;;;
2019/06/04 09:00:35;;;;;;;2.9;1.4;;;;;;;23.09;51.98828;958.0852;;;;
2019/06/04 09:03:07;;;;;;;3.9;1.4;;;;;;;23.21;52.84277;958.0748;;;;
2019/06/04 09:05:33;;;;;;;3;1.4;;;;;;;23.21;53.00781;958.0358;;;;
2019/06/04 09:07:59;;;;;;;2.5;1.5;;;;;;;23.29;50.5293;957.9892;;;;
2019/06/04 09:10:31;;;;;;;1.9;1.2;;;;;;;23.4;50.66113;958.0114;;;;
2019/06/04 09:13:12;;;;;;;4;1.6;;;;;;;23.29;51.70313;957.9933;;;;
2019/06/04 09:15:38;;;;;;;3.4;1.4;;;;;;;23.42;51.56348;958.0604;;;;
2019/06/04 09:18:02;;;;;;;3.2;1.6;;;;;;;23.51;53.64844;957.9434;;;;
2019/06/04 09:20:30;;;;;;;4.4;1.7;;;;;;;23.67;51.34375;958.0004;;;;
2019/06/04 09:22:59;;;;;;;4.6;1.4;;;;;;;23.8;49.41406;958.0019;;;;
2019/06/04 09:25:31;;;;;;;2.3;1.5;;;;;;;23.67;50.64355;958.0318;;;;
2019/06/04 09:28:03;;;;;;;2.2;1.4;;;;;;;23.77;50.09863;957.9667;;;;
2019/06/04 09:30:34;;;;;;;3.2;1.5;;;;;;;23.78;51.87891;957.9327;;;;
2019/06/04 09:33:05;;;;;;;5;1.4;;;;;;;23.81;51.87012;957.9581;;;;
2019/06/04 09:35:34;;;;;;;1.7;1.3;;;;;;;23.92;51.43164;957.9451;;;;
2019/06/04 09:38:05;;;;;;;2.8;1.6;;;;;;;23.94;49.3584;957.8969;;;;
2019/06/04 09:40:36;;;;;;;2.4;1.4;;;;;;;23.92;51.20703;957.8923;;;;
2019/06/04 09:43:02;;;;;;;3;1.5;;;;;;;23.87;51.35547;957.8826;;;;
2019/06/04 09:45:27;;;;;;;4;1.5;;;;;;;24;51.96289;957.8798;;;;
2019/06/04 09:47:55;;;;;;;3;1.5;;;;;;;24.1;47.70215;957.8436;;;;
2019/06/04 09:50:29;;;;;;;2.2;1.4;;;;;;;24.17;48.62305;957.7919;;;;
2019/06/04 09:53:00;;;;;;;2.3;1.3;;;;;;;24.38;48.75391;957.8047;;;;
2019/06/04 09:55:28;;;;;;;4.3;1.6;;;;;;;24.36;47.9082;957.7811;;;;
2019/06/04 09:57:53;;;;;;;2.8;1.4;;;;;;;24.44;47.48926;957.7603;;;;
2019/06/04 10:00:30;;;;;;;2.2;1.3;;;;;;;24.6;48.3623;957.7255;;;;
2019/06/04 10:02:57;;;;;;;2.9;1.4;;;;;;;24.78;47.72754;957.7544;;;;
2019/06/04 10:05:27;;;;;;;1.9;1.3;;;;;;;24.84;49.77832;957.7068;;;;
2019/06/04 10:07:53;;;;;;;2.2;1.4;;;;;;;24.91;47.52832;957.7155;;;;
2019/06/04 10:10:26;;;;;;;2.9;1.4;;;;;;;24.86;46.76172;957.6788;;;;
2019/06/04 10:12:56;;;;;;;1.7;1.3;;;;;;;24.88;47.00098;957.6601;;;;
2019/06/04 10:15:25;;;;;;;3.3;1.2;;;;;;;24.8;46.85059;957.5736;;;;
2019/06/04 10:17:56;;;;;;;1.9;1.5;;;;;;;24.99;47.63086;957.5531;;;;
2019/06/04 10:20:24;;;;;;;2.7;1.5;;;;;;;25.06;47.29297;957.5753;;;;
2019/06/04 10:22:59;;;;;;;1.9;1.3;;;;;;;25;48.58398;957.5125;;;;
2019/06/04 10:25:28;;;;;;;2.8;1.3;;;;;;;25.12;48.09766;957.48;;;;
2019/06/04 10:28:03;;;;;;;2.5;1.5;;;;;;;25.38;47.85059;957.3989;;;;
2019/06/04 10:30:31;;;;;;;2.1;1.4;;;;;;;25.38;46.64941;957.4244;;;;
2019/06/04 10:33:07;;;;;;;3.8;1.4;;;;;;;25.44;48.07129;957.3946;;;;
2019/06/04 10:35:41;;;;;;;2.9;1.4;;;;;;;25.41;48.21191;957.3674;;;;
2019/06/04 10:38:12;;;;;;;1.9;1.4;;;;;;;25.33;48.1543;957.2892;;;;
2019/06/04 10:40:41;;;;;;;2.3;1.5;;;;;;;25.67;49.53809;957.2519;;;;
2019/06/04 10:43:17;;;;;;;2.1;1.4;;;;;;;25.59;45.09863;957.1992;;;;
2019/06/04 10:45:48;;;;;;;3;1.4;;;;;;;25.63;47.80664;957.1496;;;;
2019/06/04 10:48:26;;;;;;;4.2;1.5;;;;;;;25.98;50.34766;957.1705;;;;
2019/06/04 10:51:01;;;;;;;3.7;1.4;;;;;;;25.99;45.8418;957.0934;;;;
2019/06/04 10:53:38;;;;;;;3.8;1.6;;;;;;;25.62;44.18457;957.1047;;;;
2019/06/04 10:56:03;;;;;;;2.2;1.4;;;;;;;25.58;44.47754;957.0956;;;;
2019/06/04 10:58:38;;;;;;;2.5;1.6;;;;;;;25.78;45.43945;957.0405;;;;
2019/06/04 11:01:06;;;;;;;3.3;1.5;;;;;;;25.76;45.41406;957.0323;;;;
2019/06/04 11:03:51;;;;;;;2.4;1.6;;;;;;;26.04;45.39453;956.9539;;;;
2019/06/04 11:06:29;;;;;;;2.4;1.5;;;;;;;26.18;47.79297;956.9635;;;;
2019/06/04 11:09:07;;;;;;;3.6;1.5;;;;;;;26.18;43.14355;956.974;;;;
2019/06/04 11:11:48;;;;;;;2.9;1.6;;;;;;;26.09;43.29004;956.8957;;;;
2019/06/04 11:14:26;;;;;;;4.4;1.4;;;;;;;26.11;44.36426;956.8502;;;;
2019/06/04 11:17:04;;;;;;;2.7;1.4;;;;;;;26.3;43.79883;956.8257;;;;
2019/06/04 11:19:45;;;;;;;2.6;1.4;;;;;;;26.4;45.4668;956.81;;;;
2019/06/04 11:22:20;;;;;;;2.8;1.5;;;;;;;26.47;43.31445;956.7639;;;;
2019/06/04 11:25:01;;;;;;;3.1;1.7;;;;;;;26.31;42.15332;956.78;;;;
2019/06/04 11:27:41;;;;;;;2.9;1.5;;;;;;;26.49;43.58984;956.7095;;;;
2019/06/04 11:30:20;;;;;;;4.6;1.5;;;;;;;26.35;42.49121;956.7601;;;;
2019/06/04 11:32:58;;;;;;;2.5;1.4;;;;;;;26.5;41.73047;956.6423;;;;
2019/06/04 11:35:30;;;;;;;2.3;1.6;;;;;;;26.61;43.79297;956.6362;;;;
2019/06/04 11:38:13;;;;;;;2.6;1.6;;;;;;;26.89;42.33984;956.6724;;;;
2019/06/04 11:40:40;;;;;;;3.5;1.7;;;;;;;26.72;42.69238;956.6094;;;;
2019/06/04 11:43:08;;;;;;;2.7;1.6;;;;;;;26.92;41.99609;956.5999;;;;
2019/06/04 11:45:36;;;;;;;3.4;1.5;;;;;;;27.1;41.09277;956.5028;;;;
2019/06/04 11:48:05;;;;;;;2.6;1.6;;;;;;;27.12;41.44141;956.5159;;;;
2019/06/04 11:50:34;;;;;;;11;1.8;;;;;;;27.14;42.625;956.503;;;;
2019/06/04 11:53:15;;;;;;;4.1;1.8;;;;;;;27.21;41.99902;956.4583;;;;
2019/06/04 11:55:46;;;;;;;2.2;1.8;;;;;;;27.32;42.60645;956.405;;;;
2019/06/04 11:58:20;;;;;;;4;2.5;;;;;;;27.27;42.06445;956.3858;;;;
2019/06/04 12:00:55;;;;;;;2.6;1.7;;;;;;;27.15;41.0127;956.3436;;;;
2019/06/04 12:03:20;;;;;;;3.3;1.7;;;;;;;27.31;42.25977;956.3025;;;;
2019/06/04 12:05:50;;;;;;;2.8;1.7;;;;;;;27.34;41.66406;956.2573;;;;
2019/06/04 12:08:20;;;;;;;5.5;2;;;;;;;27.43;41.0752;956.2033;;;;
2019/06/04 12:10:50;;;;;;;2.6;1.6;;;;;;;27.57;40.89648;956.2352;;;;
2019/06/04 12:13:15;;;;;;;3.6;1.6;;;;;;;27.6;41.47363;956.1897;;;;
2019/06/04 12:15:40;;;;;;;3.5;1.8;;;;;;;27.77;39.77734;956.1891;;;;
2019/06/04 12:18:05;;;;;;;4.5;1.8;;;;;;;27.68;40.51172;956.122;;;;
2019/06/04 12:20:30;;;;;;;3.7;1.8;;;;;;;27.92;39.58789;956.1628;;;;
2019/06/04 12:22:55;;;;;;;2.6;1.5;;;;;;;27.97;39.56738;956.1316;;;;
2019/06/04 12:25:20;;;;;;;3.1;1.6;;;;;;;28.12;39.25781;956.1358;;;;
2019/06/04 12:27:46;;;;;;;3.2;1.8;;;;;;;28.3;43.17871;956.1217;;;;
2019/06/04 12:30:11;;;;;;;2.8;1.7;;;;;;;28.48;37.79102;956.1668;;;;
2019/06/04 12:32:36;;;;;;;2.5;1.4;;;;;;;28.56;38.16895;956.1019;;;;
2019/06/04 12:35:01;;;;;;;3;1.6;;;;;;;28.76;37.38281;956.1387;;;;
2019/06/04 12:37:28;;;;;;;3.2;1.7;;;;;;;28.61;39.36035;956.0597;;;;
2019/06/04 12:39:53;;;;;;;3.2;1.6;;;;;;;28.64;38.11621;956.1026;;;;
2019/06/04 12:42:19;;;;;;;2.7;1.5;;;;;;;28.65;38.15234;956.0361;;;;
2019/06/04 12:44:44;;;;;;;2.9;1.7;;;;;;;29.24;39.58301;956.0089;;;;
2019/06/04 12:47:10;;;;;;;3.8;2.3;;;;;;;28.94;37.48145;955.973;;;;
2019/06/04 12:49:35;;;;;;;4.2;2.2;;;;;;;28.69;38.06055;955.9392;;;;
2019/06/04 12:52:01;;;;;;;2.8;2.2;;;;;;;28.97;38.59961;955.8816;;;;
2019/06/04 12:54:26;;;;;;;7.4;2.2;;;;;;;28.9;37.49023;955.8038;;;;
2019/06/04 12:56:51;;;;;;;3.7;1.8;;;;;;;29.19;37.11816;955.8031;;;;
2019/06/04 12:59:18;;;;;;;2.6;1.6;;;;;;;29.17;36.74414;955.7474;;;;
2019/06/04 13:01:43;;;;;;;3.3;1.8;;;;;;;29.53;38.17871;955.8067;;;;
2019/06/04 13:04:08;;;;;;;2.7;1.5;;;;;;;29.02;37.34473;955.6674;;;;
2019/06/04 13:06:33;;;;;;;4.3;2.2;;;;;;;29.41;36.41602;955.6819;;;;
2019/06/04 13:08:58;;;;;;;6.2;2;;;;;;;29.22;36.68848;955.6803;;;;
2019/06/04 13:11:23;;;;;;;2.1;1.7;;;;;;;29.21;36.36328;955.675;;;;
2019/06/04 13:13:48;;;;;;;4.8;1.7;;;;;;;29.3;35.86621;955.6434;;;;
2019/06/04 13:16:14;;;;;;;3.2;1.5;;;;;;;29.38;36.30469;955.6287;;;;
2019/06/04 13:18:39;;;;;;;4.2;1.5;;;;;;;29.62;35.62695;955.6555;;;;
2019/06/04 13:21:04;;;;;;;2.8;1.7;;;;;;;29.5;34.50098;955.5815;;;;
2019/06/04 13:23:29;;;;;;;3.6;1.7;;;;;;;29.42;36.04395;955.532;;;;
2019/06/04 13:25:54;;;;;;;3.9;1.6;;;;;;;29.25;36.03027;955.5531;;;;
2019/06/04 13:28:19;;;;;;;3.4;1.9;;;;;;;29.48;36.34961;955.5588;;;;
2019/06/04 13:30:44;;;;;;;3.4;1.8;;;;;;;29.53;36.90527;955.5195;;;;
2019/06/04 13:33:09;;;;;;;2.6;1.8;;;;;;;29.34;36.29004;955.5276;;;;
2019/06/04 13:35:34;;;;;;;3;1.9;;;;;;;29.54;35.70508;955.5298;;;;
2019/06/04 13:37:59;;;;;;;3.7;1.6;;;;;;;29.58;35.97266;955.5156;;;;
2019/06/04 13:40:24;;;;;;;4.9;1.8;;;;;;;29.27;36.56055;955.4391;;;;
2019/06/04 13:42:49;;;;;;;3.9;1.9;;;;;;;29.12;38.3252;955.4032;;;;
2019/06/04 13:45:15;;;;;;;3.4;1.9;;;;;;;29.53;35.87207;955.4247;;;;
2019/06/04 13:47:40;;;;;;;3.2;1.9;;;;;;;29.62;34.06543;955.4034;;;;
2019/06/04 13:50:06;;;;;;;2.8;1.6;;;;;;;29.64;35.32813;955.4339;;;;
2019/06/04 13:52:31;;;;;;;2.4;2;;;;;;;29.72;35.32324;955.3873;;;;
2019/06/04 13:54:57;;;;;;;2.8;1.9;;;;;;;29.27;35.53906;955.3132;;;;
2019/06/04 13:57:44;;;;;;;3.4;1.6;;;;;;;29.19;37.94727;955.3084;;;;
2019/06/04 14:00:10;;;;;;;2.7;2.1;;;;;;;29.44;34.42383;955.3293;;;;
2019/06/04 14:02:35;;;;;;;5.8;2.1;;;;;;;29.65;34.87305;955.3187;;;;
2019/06/04 14:05:03;;;;;;;3.1;1.8;;;;;;;29.21;33.54199;955.2417;;;;
2019/06/04 14:07:29;;;;;;;4.1;2.6;;;;;;;29.54;32.84668;955.2647;;;;
2019/06/04 14:09:54;;;;;;;2.6;1.7;;;;;;;29.18;35.89355;955.2167;;;;
2019/06/04 14:12:19;;;;;;;2.9;1.5;;;;;;;29.44;34.5918;955.1848;;;;
2019/06/04 14:14:44;;;;;;;3.1;1.9;;;;;;;29.63;35.06348;955.2034;;;;
2019/06/04 14:17:09;;;;;;;2.1;1.5;;;;;;;29.95;33.72949;955.1683;;;;
2019/06/04 14:19:34;;;;;;;2.5;1.8;;;;;;;29.98;31.5918;955.1848;;;;
2019/06/04 14:22:02;;;;;;;2.5;1.9;;;;;;;29.96;31.61426;955.1298;;;;
2019/06/04 14:24:27;;;;;;;3.9;1.8;;;;;;;29.62;31.9873;955.0744;;;;
2019/06/04 14:26:52;;;;;;;2.5;1.9;;;;;;;29.39;33.25586;955.0945;;;;
2019/06/04 14:29:17;;;;;;;2.4;1.9;;;;;;;29.73;33.77344;955.0472;;;;
2019/06/04 14:31:43;;;;;;;6.6;1.8;;;;;;;29.98;35.76465;955.0436;;;;
2019/06/04 14:34:08;;;;;;;1.9;1.4;;;;;;;30.46;31.6123;955.0252;;;;
2019/06/04 14:36:33;;;;;;;2.9;1.9;;;;;;;30.09;32.74121;954.9994;;;;
2019/06/04 14:38:58;;;;;;;3.6;2.1;;;;;;;30.33;31.86816;954.9855;;;;
2019/06/04 14:41:23;;;;;;;4.5;1.7;;;;;;;30.62;32.15332;954.9545;;;;
2019/06/04 14:43:48;;;;;;;4.3;1.6;;;;;;;30.96;31.56348;954.8647;;;;
2019/06/04 15:56:04;;;;;;;2.5;1.7;;;;;;;28.7;34.87109;954.2883;;;;